sensor_id;sensor_type;location;lat;lon;timestamp;P1;durP1;ratioP1;P2;durP2;ratioP2
35243;SDS011;37916;52.160;21.066;2023-11-21T00:05:32;33.20;;;18.70;;
35243;SDS011;37916;52.160;21.066;2023-11-21T00:15:33;34.40;;;19.08;;
35243;SDS011;37916;52.160;21.066;2023-11-21T00:25:33;40.58;;;19.20;;
35243;SDS011;37916;52.160;21.066;2023-11-21T00:35:34;38.02;;;18.88;;
35243;SDS011;37916;52.160;21.066;2023-11-21T00:45:35;37.65;;;16.58;;
35243;SDS011;37916;52.160;21.066;2023-11-21T00:55:36;24.55;;;11.05;;
35243;SDS011;37916;52.160;21.066;2023-11-21T01:05:40;36.03;;;19.27;;
35243;SDS011;37916;52.160;21.066;2023-11-21T01:15:40;29.67;;;14.88;;
35243;SDS011;37916;52.160;21.066;2023-11-21T01:25:41;44.60;;;21.58;;
35243;SDS011;37916;52.160;21.066;2023-11-21T01:35:42;38.30;;;20.00;;
35243;SDS011;37916;52.160;21.066;2023-11-21T01:45:43;45.45;;;23.25;;
35243;SDS011;37916;52.160;21.066;2023-11-21T01:55:45;43.95;;;20.15;;
35243;SDS011;37916;52.160;21.066;2023-11-21T02:05:46;40.55;;;20.42;;
35243;SDS011;37916;52.160;21.066;2023-11-21T02:15:47;41.72;;;19.88;;
35243;SDS011;37916;52.160;21.066;2023-11-21T02:25:52;32.50;;;17.15;;
35243;SDS011;37916;52.160;21.066;2023-11-21T02:35:52;38.00;;;19.15;;
35243;SDS011;37916;52.160;21.066;2023-11-21T02:45:54;26.48;;;14.18;;
35243;SDS011;37916;52.160;21.066;2023-11-21T02:55:55;43.80;;;21.10;;
35243;SDS011;37916;52.160;21.066;2023-11-21T03:05:56;33.53;;;17.27;;
35243;SDS011;37916;52.160;21.066;2023-11-21T03:15:56;36.76;;;18.56;;
35243;SDS011;37916;52.160;21.066;2023-11-21T03:25:57;34.50;;;16.77;;
35243;SDS011;37916;52.160;21.066;2023-11-21T03:35:59;25.27;;;12.07;;
35243;SDS011;37916;52.160;21.066;2023-11-21T03:46:00;32.03;;;15.82;;
35243;SDS011;37916;52.160;21.066;2023-11-21T03:56:02;43.13;;;19.55;;
35243;SDS011;37916;52.160;21.066;2023-11-21T04:06:03;35.50;;;17.95;;
35243;SDS011;37916;52.160;21.066;2023-11-21T04:16:07;26.58;;;12.32;;
35243;SDS011;37916;52.160;21.066;2023-11-21T04:26:08;25.48;;;12.85;;
35243;SDS011;37916;52.160;21.066;2023-11-21T04:36:08;30.44;;;16.18;;
35243;SDS011;37916;52.160;21.066;2023-11-21T04:46:10;28.63;;;15.25;;
35243;SDS011;37916;52.160;21.066;2023-11-21T04:56:11;22.40;;;12.68;;
35243;SDS011;37916;52.160;21.066;2023-11-21T05:06:11;24.33;;;12.85;;
35243;SDS011;37916;52.160;21.066;2023-11-21T05:16:12;25.63;;;15.82;;
35243;SDS011;37916;52.160;21.066;2023-11-21T05:26:14;17.92;;;10.95;;
35243;SDS011;37916;52.160;21.066;2023-11-21T05:36:18;16.30;;;10.77;;
35243;SDS011;37916;52.160;21.066;2023-11-21T05:46:18;21.33;;;12.07;;
35243;SDS011;37916;52.160;21.066;2023-11-21T05:56:19;21.60;;;11.50;;
35243;SDS011;37916;52.160;21.066;2023-11-21T06:06:19;15.70;;;9.82;;
35243;SDS011;37916;52.160;21.066;2023-11-21T06:16:22;19.92;;;10.50;;
35243;SDS011;37916;52.160;21.066;2023-11-21T06:26:22;18.76;;;9.92;;
35243;SDS011;37916;52.160;21.066;2023-11-21T06:36:24;19.88;;;10.65;;
35243;SDS011;37916;52.160;21.066;2023-11-21T06:46:24;15.68;;;8.38;;
35243;SDS011;37916;52.160;21.066;2023-11-21T06:56:25;15.60;;;8.77;;
35243;SDS011;37916;52.160;21.066;2023-11-21T07:06:26;14.88;;;6.72;;
35243;SDS011;37916;52.160;21.066;2023-11-21T07:16:26;16.40;;;8.82;;
35243;SDS011;37916;52.160;21.066;2023-11-21T07:26:27;19.33;;;9.13;;
35243;SDS011;37916;52.160;21.066;2023-11-21T07:36:28;17.90;;;10.00;;
35243;SDS011;37916;52.160;21.066;2023-11-21T07:46:28;22.55;;;11.75;;
35243;SDS011;37916;52.160;21.066;2023-11-21T07:56:29;22.38;;;11.32;;
35243;SDS011;37916;52.160;21.066;2023-11-21T08:06:30;20.90;;;12.24;;
35243;SDS011;37916;52.160;21.066;2023-11-21T08:16:31;23.58;;;12.13;;
35243;SDS011;37916;52.160;21.066;2023-11-21T08:26:32;25.77;;;12.15;;
35243;SDS011;37916;52.160;21.066;2023-11-21T08:36:32;17.60;;;9.84;;
35243;SDS011;37916;52.160;21.066;2023-11-21T08:46:33;19.88;;;10.98;;
35243;SDS011;37916;52.160;21.066;2023-11-21T08:56:34;23.23;;;11.52;;
35243;SDS011;37916;52.160;21.066;2023-11-21T09:06:35;16.30;;;9.95;;
35243;SDS011;37916;52.160;21.066;2023-11-21T09:16:36;20.92;;;11.65;;
35243;SDS011;37916;52.160;21.066;2023-11-21T09:26:36;22.05;;;11.52;;
35243;SDS011;37916;52.160;21.066;2023-11-21T09:36:37;19.33;;;12.02;;
35243;SDS011;37916;52.160;21.066;2023-11-21T09:46:42;18.20;;;11.13;;
35243;SDS011;37916;52.160;21.066;2023-11-21T09:56:43;17.60;;;9.52;;
35243;SDS011;37916;52.160;21.066;2023-11-21T10:06:44;23.63;;;13.13;;
35243;SDS011;37916;52.160;21.066;2023-11-21T10:16:46;19.70;;;12.23;;
35243;SDS011;37916;52.160;21.066;2023-11-21T10:26:49;22.33;;;12.02;;
35243;SDS011;37916;52.160;21.066;2023-11-21T10:36:51;26.55;;;13.38;;
35243;SDS011;37916;52.160;21.066;2023-11-21T10:46:52;22.15;;;12.45;;
35243;SDS011;37916;52.160;21.066;2023-11-21T10:56:58;19.85;;;11.20;;
35243;SDS011;37916;52.160;21.066;2023-11-21T11:07:01;19.95;;;11.80;;
35243;SDS011;37916;52.160;21.066;2023-11-21T11:17:03;12.23;;;6.90;;
35243;SDS011;37916;52.160;21.066;2023-11-21T11:27:18;12.38;;;7.75;;
35243;SDS011;37916;52.160;21.066;2023-11-21T11:37:21;18.85;;;10.20;;
35243;SDS011;37916;52.160;21.066;2023-11-21T11:47:32;21.67;;;10.88;;
35243;SDS011;37916;52.160;21.066;2023-11-21T12:07:40;15.77;;;9.40;;
35243;SDS011;37916;52.160;21.066;2023-11-21T12:17:45;25.00;;;12.90;;
35243;SDS011;37916;52.160;21.066;2023-11-21T12:27:47;20.27;;;12.52;;
35243;SDS011;37916;52.160;21.066;2023-11-21T12:37:52;23.80;;;12.13;;
35243;SDS011;37916;52.160;21.066;2023-11-21T12:47:55;13.43;;;5.57;;
35243;SDS011;37916;52.160;21.066;2023-11-21T12:57:57;22.33;;;12.32;;
35243;SDS011;37916;52.160;21.066;2023-11-21T13:08:07;14.52;;;7.85;;
35243;SDS011;37916;52.160;21.066;2023-11-21T13:18:09;14.83;;;7.97;;
35243;SDS011;37916;52.160;21.066;2023-11-21T13:28:11;14.52;;;8.65;;
35243;SDS011;37916;52.160;21.066;2023-11-21T13:38:15;22.77;;;11.77;;
35243;SDS011;37916;52.160;21.066;2023-11-21T13:48:17;19.40;;;10.10;;
35243;SDS011;37916;52.160;21.066;2023-11-21T13:58:25;21.42;;;12.48;;
35243;SDS011;37916;52.160;21.066;2023-11-21T14:08:41;19.27;;;10.38;;
35243;SDS011;37916;52.160;21.066;2023-11-21T14:18:45;21.10;;;12.32;;
35243;SDS011;37916;52.160;21.066;2023-11-21T14:28:57;17.27;;;10.77;;
35243;SDS011;37916;52.160;21.066;2023-11-21T14:38:59;23.40;;;12.05;;
35243;SDS011;37916;52.160;21.066;2023-11-21T14:49:00;19.45;;;12.65;;
35243;SDS011;37916;52.160;21.066;2023-11-21T14:59:18;15.43;;;8.38;;
35243;SDS011;37916;52.160;21.066;2023-11-21T15:09:20;25.65;;;15.07;;
35243;SDS011;37916;52.160;21.066;2023-11-21T15:19:30;28.15;;;14.73;;
35243;SDS011;37916;52.160;21.066;2023-11-21T15:29:35;19.23;;;10.20;;
35243;SDS011;37916;52.160;21.066;2023-11-21T15:39:40;22.00;;;12.23;;
35243;SDS011;37916;52.160;21.066;2023-11-21T15:49:41;20.67;;;11.32;;
35243;SDS011;37916;52.160;21.066;2023-11-21T15:59:42;21.77;;;10.95;;
35243;SDS011;37916;52.160;21.066;2023-11-21T16:09:45;22.15;;;12.15;;
35243;SDS011;37916;52.160;21.066;2023-11-21T16:19:46;9.20;;;5.25;;
35243;SDS011;37916;52.160;21.066;2023-11-21T16:29:47;21.35;;;11.02;;
35243;SDS011;37916;52.160;21.066;2023-11-21T16:39:48;14.32;;;7.75;;
35243;SDS011;37916;52.160;21.066;2023-11-21T16:49:48;10.82;;;5.97;;
35243;SDS011;37916;52.160;21.066;2023-11-21T16:59:49;13.45;;;8.73;;
35243;SDS011;37916;52.160;21.066;2023-11-21T17:09:50;16.13;;;9.20;;
35243;SDS011;37916;52.160;21.066;2023-11-21T17:19:51;15.24;;;8.10;;
35243;SDS011;37916;52.160;21.066;2023-11-21T17:29:52;8.95;;;5.53;;
35243;SDS011;37916;52.160;21.066;2023-11-21T17:39:53;13.55;;;7.80;;
35243;SDS011;37916;52.160;21.066;2023-11-21T17:49:54;14.73;;;7.45;;
35243;SDS011;37916;52.160;21.066;2023-11-21T17:59:55;14.05;;;7.03;;
35243;SDS011;37916;52.160;21.066;2023-11-21T18:09:55;13.24;;;7.66;;
35243;SDS011;37916;52.160;21.066;2023-11-21T18:19:56;11.38;;;5.22;;
35243;SDS011;37916;52.160;21.066;2023-11-21T18:29:57;14.13;;;7.15;;
35243;SDS011;37916;52.160;21.066;2023-11-21T18:39:58;7.78;;;4.03;;
35243;SDS011;37916;52.160;21.066;2023-11-21T18:49:59;14.50;;;7.68;;
35243;SDS011;37916;52.160;21.066;2023-11-21T18:59:59;16.15;;;9.13;;
35243;SDS011;37916;52.160;21.066;2023-11-21T19:10:00;13.75;;;6.80;;
35243;SDS011;37916;52.160;21.066;2023-11-21T19:20:01;11.20;;;6.20;;
35243;SDS011;37916;52.160;21.066;2023-11-21T19:30:04;10.13;;;5.80;;
35243;SDS011;37916;52.160;21.066;2023-11-21T19:40:07;13.17;;;6.57;;
35243;SDS011;37916;52.160;21.066;2023-11-21T19:50:08;5.05;;;3.33;;
35243;SDS011;37916;52.160;21.066;2023-11-21T20:00:10;11.73;;;6.78;;
35243;SDS011;37916;52.160;21.066;2023-11-21T20:10:15;13.60;;;6.82;;
35243;SDS011;37916;52.160;21.066;2023-11-21T20:20:18;9.67;;;4.57;;
35243;SDS011;37916;52.160;21.066;2023-11-21T20:30:27;11.77;;;5.87;;
35243;SDS011;37916;52.160;21.066;2023-11-21T20:40:44;8.38;;;4.75;;
35243;SDS011;37916;52.160;21.066;2023-11-21T20:50:47;10.90;;;6.00;;
35243;SDS011;37916;52.160;21.066;2023-11-21T21:00:55;13.52;;;6.55;;
35243;SDS011;37916;52.160;21.066;2023-11-21T21:10:56;13.05;;;5.45;;
35243;SDS011;37916;52.160;21.066;2023-11-21T21:20:58;16.98;;;8.27;;
35243;SDS011;37916;52.160;21.066;2023-11-21T21:31:07;12.93;;;7.32;;
35243;SDS011;37916;52.160;21.066;2023-11-21T21:41:09;12.98;;;7.25;;
35243;SDS011;37916;52.160;21.066;2023-11-21T21:51:13;14.48;;;7.15;;
35243;SDS011;37916;52.160;21.066;2023-11-21T22:01:15;15.30;;;9.00;;
35243;SDS011;37916;52.160;21.066;2023-11-21T22:11:16;15.95;;;11.80;;
35243;SDS011;37916;52.160;21.066;2023-11-21T22:21:17;12.10;;;7.18;;
35243;SDS011;37916;52.160;21.066;2023-11-21T22:31:18;9.50;;;4.95;;
35243;SDS011;37916;52.160;21.066;2023-11-21T22:41:25;16.83;;;8.30;;
35243;SDS011;37916;52.160;21.066;2023-11-21T22:51:26;13.57;;;7.60;;
35243;SDS011;37916;52.160;21.066;2023-11-21T23:01:27;14.58;;;8.64;;
35243;SDS011;37916;52.160;21.066;2023-11-21T23:11:27;13.55;;;6.72;;
35243;SDS011;37916;52.160;21.066;2023-11-21T23:21:28;9.82;;;4.75;;
35243;SDS011;37916;52.160;21.066;2023-11-21T23:31:29;10.43;;;5.30;;
35243;SDS011;37916;52.160;21.066;2023-11-21T23:41:30;14.70;;;6.00;;
35243;SDS011;37916;52.160;21.066;2023-11-21T23:51:30;7.00;;;3.35;;
